createdAt,value
2023-05-05T00:00:30.020Z,58.53
2023-05-05T00:02:57.140Z,58.22
2023-05-05T00:05:25.641Z,58.22
2023-05-05T00:07:52.474Z,58.63
2023-05-05T00:10:19.341Z,58.49
2023-05-05T00:12:46.975Z,58.47
2023-05-05T00:15:14.262Z,58.82
2023-05-05T00:17:41.914Z,58.77
2023-05-05T00:20:10.308Z,59.05
2023-05-05T00:22:37.378Z,58.99
2023-05-05T00:25:05.112Z,58.82
2023-05-05T00:27:33.103Z,58.90
2023-05-05T00:29:59.919Z,59.04
2023-05-05T00:32:27.001Z,59.24
2023-05-05T00:34:54.614Z,59.15
2023-05-05T00:37:21.777Z,58.55
2023-05-05T00:39:48.880Z,59.06
2023-05-05T00:42:15.719Z,58.92
2023-05-05T00:44:42.642Z,59.36
2023-05-05T00:47:09.873Z,59.58
2023-05-05T00:49:38.294Z,59.13
2023-05-05T00:52:05.867Z,59.27
2023-05-05T00:54:34.765Z,59.12
2023-05-05T00:57:04.716Z,59.01
2023-05-05T00:59:33.781Z,59.27
2023-05-05T01:02:00.801Z,59.19
2023-05-05T01:04:28.196Z,59.29
2023-05-05T01:07:32.828Z,59.37
2023-05-05T01:10:19.721Z,59.65
2023-05-05T01:13:31.689Z,59.22
2023-05-05T01:16:12.893Z,59.01
2023-05-05T01:18:50.568Z,59.10
2023-05-05T01:21:23.787Z,59.09
2023-05-05T01:24:11.130Z,59.43
2023-05-05T01:26:51.467Z,59.42
2023-05-05T01:29:57.858Z,59.47
2023-05-05T01:32:30.334Z,59.65
2023-05-05T01:35:01.826Z,59.90
2023-05-05T01:37:40.151Z,59.70
2023-05-05T01:40:09.060Z,59.87
2023-05-05T01:42:36.844Z,60.00
2023-05-05T01:45:06.914Z,60.11
2023-05-05T01:47:34.130Z,60.56
2023-05-05T01:50:02.246Z,60.22
2023-05-05T01:52:30.226Z,60.26
2023-05-05T01:54:58.035Z,60.53
2023-05-05T01:57:26.115Z,60.47
2023-05-05T01:59:53.574Z,60.11
2023-05-05T02:02:22.006Z,60.39
2023-05-05T02:04:50.066Z,60.44
2023-05-05T02:07:17.337Z,60.30
2023-05-05T02:09:45.095Z,60.45
2023-05-05T02:12:12.231Z,60.30
2023-05-05T02:14:40.090Z,60.57
2023-05-05T02:17:07.675Z,60.57
2023-05-05T02:19:38.582Z,60.35
2023-05-05T02:22:06.147Z,60.36
2023-05-05T02:24:34.016Z,60.58
2023-05-05T02:27:04.311Z,60.79
2023-05-05T02:29:52.872Z,60.76
2023-05-05T02:32:28.106Z,60.83
2023-05-05T02:34:56.488Z,60.83
2023-05-05T02:37:24.591Z,61.17
2023-05-05T02:40:00.654Z,61.35
2023-05-05T02:42:40.663Z,61.58
2023-05-05T02:45:13.409Z,61.53
2023-05-05T02:47:43.275Z,61.76
2023-05-05T02:50:11.729Z,61.69
2023-05-05T02:52:45.011Z,61.34
2023-05-05T02:55:13.218Z,61.74
2023-05-05T02:57:48.079Z,61.53
2023-05-05T03:00:27.221Z,61.47
2023-05-05T03:03:06.085Z,62.05
2023-05-05T03:05:49.641Z,62.05
2023-05-05T03:08:18.527Z,61.79
2023-05-05T03:11:34.361Z,61.93
2023-05-05T03:14:12.353Z,61.64
2023-05-05T03:16:42.830Z,61.55
2023-05-05T03:19:11.969Z,61.90
2023-05-05T03:21:41.144Z,61.93
2023-05-05T03:24:19.195Z,62.06
2023-05-05T03:26:58.192Z,62.09
2023-05-05T03:29:32.217Z,62.44
2023-05-05T03:32:01.368Z,62.38
2023-05-05T03:34:29.178Z,62.40
2023-05-05T03:36:57.962Z,62.50
2023-05-05T03:39:24.904Z,62.43
2023-05-05T03:41:52.149Z,62.55
2023-05-05T03:44:20.799Z,62.38
2023-05-05T03:46:47.897Z,62.50
2023-05-05T03:49:15.952Z,62.81
2023-05-05T03:51:44.789Z,62.81
2023-05-05T03:54:11.727Z,62.65
2023-05-05T03:56:40.333Z,63.20
2023-05-05T03:59:07.236Z,63.04
2023-05-05T04:01:35.491Z,62.86
2023-05-05T04:04:02.493Z,62.94
2023-05-05T04:06:29.583Z,62.84
2023-05-05T04:08:56.617Z,62.76
2023-05-05T04:11:24.071Z,62.84
2023-05-05T04:13:51.163Z,62.80
2023-05-05T04:16:18.886Z,62.54
2023-05-05T04:18:46.137Z,62.67
2023-05-05T04:21:13.602Z,62.61
2023-05-05T04:23:41.435Z,62.46
2023-05-05T04:26:08.740Z,62.72
2023-05-05T04:28:35.995Z,62.44
2023-05-05T04:31:05.478Z,62.26
2023-05-05T04:33:36.027Z,62.07
2023-05-05T04:36:03.198Z,62.36
2023-05-05T04:38:30.232Z,61.92
2023-05-05T04:40:57.315Z,61.97
2023-05-05T04:43:24.271Z,61.82
2023-05-05T04:45:55.294Z,61.62
2023-05-05T04:48:25.377Z,61.75
2023-05-05T04:50:52.312Z,61.67
2023-05-05T04:53:19.404Z,61.70
2023-05-05T04:55:46.664Z,61.46
2023-05-05T04:58:13.551Z,61.33
2023-05-05T05:00:43.494Z,61.24
2023-05-05T05:03:10.980Z,61.03
2023-05-05T05:05:38.050Z,60.86
2023-05-05T05:08:05.256Z,60.76
2023-05-05T05:10:32.126Z,60.30
2023-05-05T05:12:58.999Z,60.17
2023-05-05T05:15:27.209Z,60.28
2023-05-05T05:17:54.127Z,59.96
2023-05-05T05:20:21.407Z,59.87
2023-05-05T05:22:48.315Z,59.21
2023-05-05T05:25:18.324Z,59.34
2023-05-05T05:27:55.305Z,59.24
2023-05-05T05:30:34.190Z,58.95
2023-05-05T05:33:03.347Z,59.03
2023-05-05T05:35:30.726Z,59.44
2023-05-05T05:37:58.035Z,59.38
2023-05-05T05:40:25.737Z,58.88
2023-05-05T05:42:52.682Z,58.65
2023-05-05T05:45:19.606Z,58.35
2023-05-05T05:47:46.847Z,58.07
2023-05-05T05:50:14.084Z,57.66
2023-05-05T05:52:41.806Z,57.57
2023-05-05T05:55:09.311Z,56.86
2023-05-05T05:57:37.108Z,57.04
2023-05-05T06:00:06.708Z,56.64
2023-05-05T06:02:38.970Z,56.45
2023-05-05T06:05:10.783Z,56.88
2023-05-05T06:07:37.764Z,56.70
2023-05-05T06:10:22.846Z,56.67
2023-05-05T06:12:55.079Z,56.81
2023-05-05T06:15:23.196Z,56.71
2023-05-05T06:17:50.204Z,56.46
2023-05-05T06:20:17.238Z,56.45
2023-05-05T06:22:44.263Z,56.14
2023-05-05T06:25:11.480Z,56.30
2023-05-05T06:27:38.808Z,56.40
2023-05-05T06:30:07.411Z,56.22
2023-05-05T06:32:34.854Z,55.95
2023-05-05T06:35:02.025Z,56.31
2023-05-05T06:37:30.021Z,55.95
2023-05-05T06:39:57.158Z,55.86
2023-05-05T06:42:24.146Z,55.89
2023-05-05T06:44:52.988Z,55.50
2023-05-05T06:47:19.958Z,55.64
2023-05-05T06:49:46.750Z,55.44
2023-05-05T06:52:13.651Z,55.37
2023-05-05T06:54:40.683Z,55.52
2023-05-05T06:57:07.639Z,55.48
2023-05-05T06:59:34.869Z,55.31
2023-05-05T07:02:01.677Z,55.28
2023-05-05T07:04:28.577Z,55.01
2023-05-05T07:06:55.582Z,55.27
2023-05-05T07:09:22.433Z,54.82
2023-05-05T07:11:50.688Z,54.80
2023-05-05T07:14:17.641Z,54.85
2023-05-05T07:16:44.734Z,55.02
2023-05-05T07:19:11.590Z,54.66
2023-05-05T07:21:40.130Z,55.16
2023-05-05T07:24:07.270Z,54.84
2023-05-05T07:26:34.186Z,54.80
2023-05-05T07:29:02.635Z,55.20
2023-05-05T07:31:29.646Z,55.24
2023-05-05T07:33:56.573Z,55.05
2023-05-05T07:36:23.532Z,55.10
2023-05-05T07:38:50.521Z,54.98
2023-05-05T07:41:18.724Z,55.04
2023-05-05T07:43:46.250Z,54.93
2023-05-05T07:46:14.055Z,55.24
2023-05-05T07:48:41.831Z,54.74
2023-05-05T07:51:09.266Z,54.61
2023-05-05T07:53:36.335Z,54.05
2023-05-05T07:56:03.548Z,54.19
2023-05-05T07:58:30.419Z,54.07
2023-05-05T08:00:57.485Z,54.01
2023-05-05T08:03:25.123Z,53.99
2023-05-05T08:05:54.622Z,53.85
2023-05-05T08:08:25.188Z,53.69
2023-05-05T08:10:53.478Z,53.57
2023-05-05T08:13:20.673Z,53.26
2023-05-05T08:15:48.409Z,53.51
2023-05-05T08:18:15.626Z,53.52
2023-05-05T08:20:42.600Z,53.18
2023-05-05T08:23:09.687Z,53.01
2023-05-05T08:25:36.616Z,53.20
2023-05-05T08:28:03.714Z,52.95
2023-05-05T08:30:32.406Z,53.00
2023-05-05T08:33:00.687Z,52.89
2023-05-05T08:35:27.619Z,52.70
2023-05-05T08:37:58.107Z,52.79
2023-05-05T08:40:30.498Z,52.25
2023-05-05T08:42:57.425Z,52.23
2023-05-05T08:45:24.601Z,51.73
2023-05-05T08:47:51.518Z,51.62
2023-05-05T08:50:19.697Z,51.25
2023-05-05T08:52:51.231Z,50.95
2023-05-05T08:55:24.821Z,50.82
2023-05-05T08:57:54.205Z,50.50
2023-05-05T09:00:22.129Z,50.75
2023-05-05T09:02:49.975Z,50.64
2023-05-05T09:05:17.249Z,50.91
2023-05-05T09:07:44.370Z,50.49
2023-05-05T09:10:12.103Z,50.39
2023-05-05T09:12:42.691Z,50.70
2023-05-05T09:15:11.819Z,50.59
2023-05-05T09:17:39.770Z,50.74
2023-05-05T09:20:08.555Z,50.30
2023-05-05T09:22:46.905Z,50.10
2023-05-05T09:25:15.515Z,50.11
2023-05-05T09:27:47.465Z,49.79
2023-05-05T09:30:17.480Z,49.95
2023-05-05T09:32:49.348Z,49.50
2023-05-05T09:35:17.128Z,49.49
2023-05-05T09:37:44.499Z,49.66
2023-05-05T09:40:13.776Z,49.47
2023-05-05T09:42:41.263Z,49.40
2023-05-05T09:45:17.826Z,49.45
2023-05-05T09:47:48.588Z,49.22
2023-05-05T09:50:16.395Z,49.24
2023-05-05T09:52:43.621Z,49.15
2023-05-05T09:55:19.539Z,48.58
2023-05-05T09:57:47.675Z,48.98
2023-05-05T10:00:15.041Z,48.56
2023-05-05T10:02:42.274Z,48.09
2023-05-05T10:05:13.362Z,47.86
2023-05-05T10:07:42.499Z,47.88
2023-05-05T10:10:11.924Z,47.97
2023-05-05T10:12:39.406Z,47.55
2023-05-05T10:15:09.162Z,47.56
2023-05-05T10:17:38.692Z,47.60
2023-05-05T10:20:07.990Z,47.34
2023-05-05T10:22:35.510Z,47.37
2023-05-05T10:25:35.764Z,46.74
2023-05-05T10:28:06.665Z,46.95
2023-05-05T10:30:37.466Z,46.75
2023-05-05T10:33:30.254Z,46.84
2023-05-05T10:36:01.726Z,46.57
2023-05-05T10:38:30.347Z,46.19
2023-05-05T10:40:58.318Z,46.64
2023-05-05T10:43:25.370Z,46.64
2023-05-05T10:45:53.376Z,45.91
2023-05-05T10:48:28.310Z,45.90
2023-05-05T10:51:02.338Z,45.91
2023-05-05T10:53:39.145Z,45.56
2023-05-05T10:56:21.600Z,45.99
2023-05-05T10:58:59.159Z,46.04
2023-05-05T11:01:33.229Z,45.95
2023-05-05T11:04:22.923Z,45.86
2023-05-05T11:07:09.264Z,45.60
2023-05-05T11:09:55.134Z,45.21
2023-05-05T11:12:22.223Z,44.81
2023-05-05T11:15:38.056Z,45.18
2023-05-05T11:18:07.568Z,44.84
2023-05-05T11:20:35.584Z,45.04
2023-05-05T11:23:02.470Z,45.09
2023-05-05T11:25:47.476Z,45.32
2023-05-05T11:28:15.389Z,44.81
2023-05-05T11:30:58.833Z,44.30
2023-05-05T11:33:37.276Z,44.01
2023-05-05T11:36:07.132Z,44.14
2023-05-05T11:38:37.814Z,44.51
2023-05-05T11:41:37.778Z,43.92
2023-05-05T11:44:15.635Z,44.06
2023-05-05T11:46:51.765Z,44.21
2023-05-05T11:49:28.803Z,44.42
2023-05-05T11:52:03.639Z,45.23
2023-05-05T11:54:30.938Z,44.71
2023-05-05T11:57:02.286Z,44.19
2023-05-05T11:59:29.156Z,44.11
2023-05-05T12:01:56.010Z,44.64
2023-05-05T12:04:23.006Z,44.30
2023-05-05T12:06:50.016Z,44.21
2023-05-05T12:09:21.425Z,43.65
2023-05-05T12:11:59.062Z,43.36
2023-05-05T12:14:26.267Z,43.25
2023-05-05T12:16:56.787Z,43.16
2023-05-05T12:19:23.886Z,43.47
2023-05-05T12:21:51.013Z,43.56
2023-05-05T12:24:18.143Z,42.99
2023-05-05T12:26:45.099Z,42.57
2023-05-05T12:29:12.027Z,42.78
2023-05-05T12:31:39.963Z,42.59
2023-05-05T12:34:09.489Z,42.91
2023-05-05T12:36:37.361Z,43.17
2023-05-05T12:39:05.552Z,42.83
2023-05-05T12:41:33.185Z,42.61
2023-05-05T12:44:01.275Z,42.34
2023-05-05T12:46:29.937Z,42.64
2023-05-05T12:49:07.475Z,42.48
2023-05-05T12:51:36.225Z,42.40
2023-05-05T12:54:11.378Z,42.19
2023-05-05T12:56:46.650Z,42.26
2023-05-05T12:59:22.609Z,41.93
2023-05-05T13:01:50.983Z,41.61
2023-05-05T13:04:18.728Z,41.22
2023-05-05T13:06:49.875Z,41.19
2023-05-05T13:09:36.241Z,41.32
2023-05-05T13:12:04.138Z,41.08
2023-05-05T13:14:37.621Z,41.01
2023-05-05T13:17:04.591Z,40.97
2023-05-05T13:19:31.678Z,40.75
2023-05-05T13:21:58.989Z,40.58
2023-05-05T13:24:42.204Z,40.27
2023-05-05T13:27:13.217Z,40.35
2023-05-05T13:29:41.872Z,40.70
2023-05-05T13:32:08.788Z,40.14
2023-05-05T13:34:35.649Z,40.33
2023-05-05T13:37:02.457Z,40.07
2023-05-05T13:39:29.267Z,39.20
2023-05-05T13:41:56.412Z,39.28
2023-05-05T13:44:23.333Z,39.34
2023-05-05T13:46:50.331Z,38.36
2023-05-05T13:49:17.456Z,38.11
2023-05-05T13:51:46.161Z,38.17
2023-05-05T13:54:13.097Z,38.46
2023-05-05T13:56:40.036Z,38.23
2023-05-05T13:59:06.923Z,38.18
2023-05-05T14:01:33.890Z,38.15
2023-05-05T14:04:03.635Z,37.67
2023-05-05T14:06:32.827Z,37.41
2023-05-05T14:08:59.870Z,37.66
2023-05-05T14:11:26.736Z,37.72
2023-05-05T14:13:53.617Z,37.95
2023-05-05T14:16:20.497Z,37.48
2023-05-05T14:18:47.366Z,37.38
2023-05-05T14:21:14.284Z,37.42
2023-05-05T14:23:41.308Z,37.67
2023-05-05T14:26:09.323Z,37.39
2023-05-05T14:28:36.299Z,37.33
2023-05-05T14:31:03.148Z,37.09
2023-05-05T14:33:29.975Z,37.31
2023-05-05T14:35:56.948Z,37.04
2023-05-05T14:38:24.515Z,37.52
2023-05-05T14:40:51.437Z,37.97
2023-05-05T14:43:18.313Z,37.96
2023-05-05T14:45:45.288Z,38.26
2023-05-05T14:48:12.277Z,38.28
2023-05-05T14:50:40.770Z,38.33
2023-05-05T14:53:07.583Z,38.52
2023-05-05T14:55:34.576Z,38.71
2023-05-05T14:58:01.493Z,38.99
2023-05-05T15:00:28.785Z,39.37
2023-05-05T15:02:55.746Z,39.32
2023-05-05T15:05:22.658Z,39.51
2023-05-05T15:07:49.543Z,39.56
2023-05-05T15:10:16.749Z,39.81
2023-05-05T15:12:43.675Z,40.13
2023-05-05T15:15:11.057Z,40.32
2023-05-05T15:17:39.224Z,40.29
2023-05-05T15:20:07.020Z,40.48
2023-05-05T15:22:34.198Z,40.66
2023-05-05T15:25:01.720Z,41.29
2023-05-05T15:27:29.550Z,41.24
2023-05-05T15:29:56.422Z,41.53
2023-05-05T15:32:23.354Z,41.18
2023-05-05T15:34:50.499Z,41.65
2023-05-05T15:37:17.636Z,40.99
2023-05-05T15:39:44.481Z,40.96
2023-05-05T15:42:11.367Z,40.76
2023-05-05T15:44:38.337Z,40.67
2023-05-05T15:47:05.510Z,40.80
2023-05-05T15:49:32.514Z,40.87
2023-05-05T15:51:59.403Z,41.20
2023-05-05T15:54:26.288Z,41.25
2023-05-05T15:56:53.183Z,41.83
2023-05-05T15:59:20.076Z,42.15
2023-05-05T16:01:47.512Z,41.79
2023-05-05T16:04:14.558Z,42.39
2023-05-05T16:06:53.451Z,42.34
2023-05-05T16:09:20.299Z,42.14
2023-05-05T16:11:47.652Z,42.51
2023-05-05T16:14:14.466Z,42.50
2023-05-05T16:16:41.380Z,42.23
2023-05-05T16:19:08.880Z,42.45
2023-05-05T16:21:35.799Z,42.37
2023-05-05T16:24:02.647Z,42.75
2023-05-05T16:26:29.564Z,43.35
2023-05-05T16:28:56.405Z,43.42
2023-05-05T16:31:23.786Z,43.77
2023-05-05T16:33:50.694Z,43.68
2023-05-05T16:36:17.533Z,43.92
2023-05-05T16:38:44.398Z,44.31
2023-05-05T16:41:11.668Z,44.04
2023-05-05T16:43:38.632Z,44.48
2023-05-05T16:46:06.985Z,44.39
2023-05-05T16:48:33.873Z,44.93
2023-05-05T16:51:01.129Z,44.87
2023-05-05T16:53:28.001Z,45.43
2023-05-05T16:55:55.172Z,45.39
2023-05-05T16:58:22.965Z,45.11
2023-05-05T17:00:50.461Z,45.30
2023-05-05T17:03:18.385Z,45.90
2023-05-05T17:05:50.037Z,45.76
2023-05-05T17:08:18.606Z,46.27
2023-05-05T17:10:46.949Z,45.96
2023-05-05T17:13:15.759Z,46.23
2023-05-05T17:15:45.485Z,46.40
2023-05-05T17:18:13.369Z,46.51
2023-05-05T17:20:40.974Z,46.88
2023-05-05T17:23:09.142Z,46.84
2023-05-05T17:25:36.710Z,47.04
2023-05-05T17:28:04.832Z,47.27
2023-05-05T17:30:35.237Z,47.23
2023-05-05T17:33:02.973Z,47.44
2023-05-05T17:35:30.553Z,47.50
2023-05-05T17:37:58.203Z,47.24
2023-05-05T17:40:25.988Z,47.42
2023-05-05T17:42:53.245Z,47.61
2023-05-05T17:45:20.620Z,48.12
2023-05-05T17:47:48.231Z,47.95
2023-05-05T17:50:15.715Z,48.24
2023-05-05T17:52:45.500Z,48.09
2023-05-05T17:55:13.545Z,48.24
2023-05-05T17:57:41.339Z,48.44
2023-05-05T18:00:10.002Z,48.57
2023-05-05T18:02:40.139Z,49.01
2023-05-05T18:05:07.473Z,49.33
2023-05-05T18:07:34.646Z,49.45
2023-05-05T18:10:01.626Z,49.45
2023-05-05T18:12:28.822Z,49.22
2023-05-05T18:14:55.642Z,49.46
2023-05-05T18:17:22.487Z,49.75
2023-05-05T18:19:50.050Z,49.77
2023-05-05T18:22:17.266Z,49.78
2023-05-05T18:24:44.119Z,50.23
2023-05-05T18:27:10.995Z,50.05
2023-05-05T18:29:37.971Z,50.36
2023-05-05T18:32:06.684Z,50.66
2023-05-05T18:34:33.720Z,50.62
2023-05-05T18:37:00.801Z,50.98
2023-05-05T18:39:27.701Z,51.09
2023-05-05T18:41:54.631Z,51.16
2023-05-05T18:44:21.759Z,51.54
2023-05-05T18:46:48.776Z,51.34
2023-05-05T18:49:15.813Z,51.51
2023-05-05T18:51:43.373Z,51.68
2023-05-05T18:54:10.216Z,51.82
2023-05-05T18:56:37.325Z,51.84
2023-05-05T18:59:05.007Z,52.02
2023-05-05T19:01:31.925Z,52.14
2023-05-05T19:03:58.853Z,52.13
2023-05-05T19:06:26.112Z,51.90
2023-05-05T19:08:54.048Z,52.25
2023-05-05T19:11:21.138Z,52.37
2023-05-05T19:13:48.218Z,51.97
2023-05-05T19:16:15.173Z,52.02
2023-05-05T19:18:44.157Z,52.05
2023-05-05T19:21:11.089Z,52.13
2023-05-05T19:23:38.427Z,52.25
2023-05-05T19:26:05.977Z,52.47
2023-05-05T19:28:33.224Z,52.19
2023-05-05T19:31:00.173Z,52.37
2023-05-05T19:33:27.160Z,52.50
2023-05-05T19:35:54.043Z,52.46
2023-05-05T19:38:21.012Z,52.74
2023-05-05T19:40:47.842Z,52.42
2023-05-05T19:43:14.680Z,52.60
2023-05-05T19:45:41.660Z,52.97
2023-05-05T19:48:08.702Z,53.45
2023-05-05T19:50:35.680Z,53.51
2023-05-05T19:53:03.828Z,53.34
2023-05-05T19:55:31.040Z,53.29
2023-05-05T19:57:57.928Z,53.37
2023-05-05T20:00:26.299Z,53.55
2023-05-05T20:02:53.378Z,53.60
2023-05-05T20:05:20.527Z,53.46
2023-05-05T20:07:47.586Z,53.29
2023-05-05T20:10:15.902Z,53.37
2023-05-05T20:12:48.310Z,53.45
2023-05-05T20:15:18.907Z,53.31
2023-05-05T20:17:49.451Z,53.49
2023-05-05T20:20:22.264Z,53.45
2023-05-05T20:22:49.836Z,53.15
2023-05-05T20:25:17.186Z,53.54
2023-05-05T20:27:45.529Z,53.88
2023-05-05T20:30:13.529Z,53.36
2023-05-05T20:32:40.999Z,53.92
2023-05-05T20:35:08.648Z,53.82
2023-05-05T20:37:35.581Z,53.46
2023-05-05T20:40:02.593Z,53.62
2023-05-05T20:42:30.029Z,53.91
2023-05-05T20:44:57.185Z,54.02
2023-05-05T20:47:24.520Z,53.89
2023-05-05T20:49:52.676Z,54.02
2023-05-05T20:52:19.725Z,53.83
2023-05-05T20:54:46.569Z,54.02
2023-05-05T20:57:13.543Z,53.93
2023-05-05T20:59:40.464Z,53.77
2023-05-05T21:02:07.794Z,54.20
2023-05-05T21:04:34.821Z,54.03
2023-05-05T21:07:01.686Z,54.44
2023-05-05T21:09:28.875Z,54.67
2023-05-05T21:11:56.462Z,54.72
2023-05-05T21:14:23.960Z,54.48
2023-05-05T21:16:51.279Z,54.97
2023-05-05T21:19:18.173Z,54.66
2023-05-05T21:21:45.092Z,54.69
2023-05-05T21:24:13.286Z,55.00
2023-05-05T21:26:46.296Z,54.99
2023-05-05T21:29:13.247Z,54.85
2023-05-05T21:31:40.079Z,54.88
2023-05-05T21:34:07.041Z,54.82
2023-05-05T21:36:34.203Z,54.78
2023-05-05T21:39:01.220Z,54.80
2023-05-05T21:41:28.364Z,55.17
2023-05-05T21:43:55.920Z,54.71
2023-05-05T21:46:23.003Z,54.92
2023-05-05T21:48:50.144Z,55.00
2023-05-05T21:51:18.762Z,54.94
2023-05-05T21:53:46.671Z,55.01
2023-05-05T21:56:13.610Z,55.14
2023-05-05T21:58:41.360Z,54.94
2023-05-05T22:01:08.645Z,55.01
2023-05-05T22:03:36.112Z,54.96
2023-05-05T22:06:21.661Z,54.98
2023-05-05T22:09:07.058Z,54.92
2023-05-05T22:11:34.289Z,55.05
2023-05-05T22:14:01.497Z,55.11
2023-05-05T22:16:29.388Z,55.19
2023-05-05T22:18:56.772Z,55.26
2023-05-05T22:21:23.881Z,55.80
2023-05-05T22:23:51.903Z,56.12
2023-05-05T22:26:18.897Z,56.37
2023-05-05T22:28:46.662Z,56.85
2023-05-05T22:31:14.041Z,57.18
2023-05-05T22:33:40.918Z,57.21
2023-05-05T22:36:09.459Z,57.57
2023-05-05T22:38:36.421Z,57.33
2023-05-05T22:41:03.305Z,58.00
2023-05-05T22:43:30.233Z,57.95
2023-05-05T22:45:57.147Z,58.45
2023-05-05T22:48:24.323Z,59.07
2023-05-05T22:50:51.755Z,59.10
2023-05-05T22:53:18.639Z,59.43
2023-05-05T23:02:06.554Z,60.42
2023-05-05T23:04:33.433Z,61.28
2023-05-05T23:07:00.301Z,61.33
2023-05-05T23:09:27.120Z,61.15
2023-05-05T23:11:54.010Z,60.94
2023-05-05T23:14:20.978Z,61.04
2023-05-05T23:16:48.011Z,61.70
2023-05-05T23:19:15.041Z,61.54
2023-05-05T23:21:51.888Z,61.88
2023-05-05T23:24:20.467Z,62.07
2023-05-05T23:26:47.373Z,61.76
2023-05-05T23:29:14.437Z,61.85
2023-05-05T23:31:41.379Z,61.71
2023-05-05T23:34:08.200Z,61.97
2023-05-05T23:36:35.002Z,61.84
2023-05-05T23:39:01.797Z,61.75
2023-05-05T23:41:28.666Z,61.61
2023-05-05T23:43:55.466Z,61.34
2023-05-05T23:46:22.500Z,61.61
2023-05-05T23:48:50.267Z,61.48
2023-05-05T23:51:17.744Z,61.40
2023-05-05T23:53:44.616Z,61.56
2023-05-05T23:56:11.883Z,61.45
2023-05-05T23:58:38.932Z,60.98
